createdAt,value
2022-11-25T00:00:47.444Z,4.32
2022-11-25T00:01:49.240Z,4.26
2022-11-25T00:02:50.912Z,4.23
2022-11-25T00:03:55.073Z,4.24
2022-11-25T00:04:56.631Z,4.21
2022-11-25T00:06:07.192Z,4.18
2022-11-25T00:07:08.664Z,4.16
2022-11-25T00:08:10.169Z,4.11
2022-11-25T00:09:12.965Z,4.09
2022-11-25T00:10:14.364Z,4.06
2022-11-25T00:11:17.081Z,4.01
2022-11-25T00:12:18.558Z,3.99
2022-11-25T00:13:19.945Z,4.02
2022-11-25T00:14:21.524Z,4.01
2022-11-25T00:15:23.263Z,4.00
2022-11-25T00:16:26.550Z,3.98
2022-11-25T00:17:28.077Z,3.99
2022-11-25T00:18:29.825Z,3.99
2022-11-25T00:19:31.298Z,4.00
2022-11-25T00:20:33.028Z,3.98
2022-11-25T00:21:34.719Z,4.00
2022-11-25T00:22:36.136Z,4.02
2022-11-25T00:23:38.230Z,4.03
2022-11-25T00:24:39.631Z,3.97
2022-11-25T00:25:41.453Z,3.95
2022-11-25T00:26:42.898Z,3.95
2022-11-25T00:27:44.330Z,3.94
2022-11-25T00:28:47.094Z,3.93
2022-11-25T00:29:48.576Z,3.93
2022-11-25T00:30:50.294Z,3.90
2022-11-25T00:31:51.824Z,3.88
2022-11-25T00:32:54.441Z,3.88
2022-11-25T00:33:56.204Z,3.89
2022-11-25T00:34:57.628Z,3.90
2022-11-25T00:36:02.777Z,3.88
2022-11-25T00:37:04.203Z,3.93
2022-11-25T00:38:08.050Z,3.91
2022-11-25T00:39:19.880Z,3.95
2022-11-25T00:40:21.680Z,3.97
2022-11-25T00:41:42.448Z,3.97
2022-11-25T00:43:02.118Z,3.95
2022-11-25T00:44:22.537Z,3.92
2022-11-25T00:45:23.986Z,3.92
2022-11-25T00:46:25.428Z,3.92
2022-11-25T00:47:27.048Z,3.90
2022-11-25T00:48:28.503Z,3.88
2022-11-25T00:49:29.932Z,3.82
2022-11-25T00:50:31.671Z,3.81
2022-11-25T00:51:33.452Z,3.78
2022-11-25T00:52:37.006Z,3.77
2022-11-25T00:53:38.382Z,3.73
2022-11-25T00:54:39.803Z,3.74
2022-11-25T00:56:01.817Z,3.74
2022-11-25T00:57:03.412Z,3.70
2022-11-25T00:58:04.824Z,3.72
2022-11-25T00:59:06.432Z,3.75
2022-11-25T01:00:10.360Z,3.75
2022-11-25T01:01:12.555Z,3.75
2022-11-25T01:02:17.094Z,3.75
2022-11-25T01:03:18.699Z,3.73
2022-11-25T01:04:20.240Z,3.74
2022-11-25T01:05:21.949Z,3.74
2022-11-25T01:06:23.855Z,3.73
2022-11-25T01:07:25.338Z,3.71
2022-11-25T01:08:26.769Z,3.70
2022-11-25T01:09:29.280Z,3.69
2022-11-25T01:10:30.705Z,3.67
2022-11-25T01:11:32.413Z,3.64
2022-11-25T01:12:33.861Z,3.62
2022-11-25T01:13:35.328Z,3.59
2022-11-25T01:14:37.468Z,3.58
2022-11-25T01:15:39.084Z,3.56
2022-11-25T01:16:40.648Z,3.58
2022-11-25T01:17:42.119Z,3.55
2022-11-25T01:18:44.651Z,3.53
2022-11-25T01:19:46.394Z,3.54
2022-11-25T01:20:47.874Z,3.50
2022-11-25T01:21:49.391Z,3.50
2022-11-25T01:22:51.984Z,3.48
2022-11-25T01:23:53.746Z,3.45
2022-11-25T01:24:55.481Z,3.47
2022-11-25T01:25:56.882Z,3.46
2022-11-25T01:26:58.527Z,3.45
2022-11-25T01:28:00.126Z,3.47
2022-11-25T01:29:05.594Z,3.47
2022-11-25T01:30:07.758Z,3.48
2022-11-25T01:31:15.348Z,3.49
2022-11-25T01:32:17.506Z,3.48
2022-11-25T01:33:18.901Z,3.48
2022-11-25T01:34:23.014Z,3.47
2022-11-25T01:35:24.860Z,3.44
2022-11-25T01:36:27.062Z,3.42
2022-11-25T01:37:28.492Z,3.45
2022-11-25T01:38:30.771Z,3.43
2022-11-25T01:39:33.318Z,3.44
2022-11-25T01:40:36.314Z,3.43
2022-11-25T01:41:37.722Z,3.42
2022-11-25T01:42:43.872Z,3.40
2022-11-25T01:44:03.907Z,3.40
2022-11-25T01:45:27.867Z,3.38
2022-11-25T01:46:45.349Z,3.38
2022-11-25T01:47:46.820Z,3.34
2022-11-25T01:48:50.269Z,3.34
2022-11-25T01:50:03.492Z,3.32
2022-11-25T01:51:06.195Z,3.28
2022-11-25T01:52:07.760Z,3.29
2022-11-25T01:53:11.940Z,3.26
2022-11-25T01:54:17.662Z,3.26
2022-11-25T01:55:24.277Z,3.25
2022-11-25T01:56:30.441Z,3.26
2022-11-25T01:57:41.285Z,3.29
2022-11-25T01:58:46.343Z,3.26
2022-11-25T01:59:51.709Z,3.24
2022-11-25T02:00:53.215Z,3.24
2022-11-25T02:01:56.491Z,3.20
2022-11-25T02:02:58.901Z,3.17
2022-11-25T02:04:01.220Z,3.18
2022-11-25T02:05:07.884Z,3.19
2022-11-25T02:06:19.186Z,3.19
2022-11-25T02:07:34.767Z,3.21
2022-11-25T02:08:36.626Z,3.22
2022-11-25T02:09:41.744Z,3.22
2022-11-25T02:10:44.742Z,3.24
2022-11-25T02:11:46.718Z,3.24
2022-11-25T02:12:48.820Z,3.17
2022-11-25T02:13:51.559Z,3.17
2022-11-25T02:14:55.721Z,3.15
2022-11-25T02:15:57.359Z,3.08
2022-11-25T02:17:01.774Z,3.07
2022-11-25T02:18:03.632Z,3.07
2022-11-25T02:19:09.560Z,3.07
2022-11-25T02:20:17.369Z,3.08
2022-11-25T02:21:26.365Z,3.10
2022-11-25T02:22:56.262Z,3.11
2022-11-25T02:24:04.331Z,3.12
2022-11-25T02:25:13.411Z,3.11
2022-11-25T02:26:15.097Z,3.11
2022-11-25T02:27:18.024Z,3.16
2022-11-25T02:28:23.643Z,3.17
2022-11-25T02:29:26.130Z,3.17
2022-11-25T02:30:27.672Z,3.14
2022-11-25T02:31:29.246Z,3.15
2022-11-25T02:32:31.108Z,3.10
2022-11-25T02:33:32.682Z,3.14
2022-11-25T02:34:34.439Z,3.11
2022-11-25T02:35:56.720Z,3.06
2022-11-25T02:36:59.119Z,3.04
2022-11-25T02:38:08.371Z,3.03
2022-11-25T02:39:10.074Z,3.04
2022-11-25T02:40:13.271Z,3.03
2022-11-25T02:41:20.986Z,3.06
2022-11-25T02:42:23.391Z,3.04
2022-11-25T02:43:27.186Z,3.05
2022-11-25T02:44:28.961Z,3.04
2022-11-25T02:45:40.956Z,3.05
2022-11-25T02:46:42.463Z,3.01
2022-11-25T02:47:44.245Z,2.99
2022-11-25T02:49:07.983Z,2.97
2022-11-25T02:50:08.222Z,2.95
2022-11-25T02:51:12.595Z,2.95
2022-11-25T02:52:14.374Z,2.96
2022-11-25T02:53:16.607Z,2.95
2022-11-25T02:54:18.073Z,2.93
2022-11-25T02:55:19.517Z,2.93
2022-11-25T02:56:22.864Z,2.92
2022-11-25T02:57:24.681Z,2.93
2022-11-25T02:58:26.421Z,2.91
2022-11-25T02:59:27.872Z,2.89
2022-11-25T03:00:29.316Z,2.89
2022-11-25T03:01:31.591Z,2.90
2022-11-25T03:02:34.405Z,2.88
2022-11-25T03:03:36.982Z,2.88
2022-11-25T03:04:38.957Z,2.89
2022-11-25T03:05:40.794Z,2.85
2022-11-25T03:06:42.327Z,2.85
2022-11-25T03:07:43.828Z,2.81
2022-11-25T03:08:45.359Z,2.78
2022-11-25T03:09:46.857Z,2.77
2022-11-25T03:10:48.447Z,2.79
2022-11-25T03:12:08.578Z,2.78
2022-11-25T03:13:10.402Z,2.74
2022-11-25T03:14:12.046Z,2.75
2022-11-25T03:15:13.557Z,2.76
2022-11-25T03:16:15.097Z,2.77
2022-11-25T03:17:16.637Z,2.77
2022-11-25T03:18:18.090Z,2.76
2022-11-25T03:19:19.547Z,2.77
2022-11-25T03:20:21.118Z,2.80
2022-11-25T03:21:22.564Z,2.79
2022-11-25T03:22:24.948Z,2.79
2022-11-25T03:23:26.847Z,2.79
2022-11-25T03:24:28.458Z,2.79
2022-11-25T03:25:30.139Z,2.81
2022-11-25T03:26:31.703Z,2.81
2022-11-25T03:27:37.310Z,2.82
2022-11-25T03:28:38.751Z,2.80
2022-11-25T03:29:40.214Z,2.79
2022-11-25T03:30:43.000Z,2.78
2022-11-25T03:31:44.530Z,2.77
2022-11-25T03:32:46.707Z,2.76
2022-11-25T03:33:48.132Z,2.72
2022-11-25T03:34:49.737Z,2.72
2022-11-25T03:35:51.149Z,2.73
2022-11-25T03:36:52.622Z,2.75
2022-11-25T03:37:54.486Z,2.74
2022-11-25T03:38:55.906Z,2.68
2022-11-25T03:39:57.376Z,2.62
2022-11-25T03:40:58.835Z,2.61
2022-11-25T03:42:00.290Z,2.65
2022-11-25T03:43:01.929Z,2.68
2022-11-25T03:44:03.511Z,2.68
2022-11-25T03:45:06.072Z,2.69
2022-11-25T03:46:07.556Z,2.69
2022-11-25T03:47:09.821Z,2.68
2022-11-25T03:48:11.358Z,2.69
2022-11-25T03:49:12.839Z,2.68
2022-11-25T03:50:15.351Z,2.63
2022-11-25T03:51:16.798Z,2.62
2022-11-25T03:52:18.873Z,2.61
2022-11-25T03:53:20.291Z,2.60
2022-11-25T03:54:21.739Z,2.57
2022-11-25T03:55:23.174Z,2.56
2022-11-25T03:56:24.682Z,2.55
2022-11-25T03:57:26.488Z,2.53
2022-11-25T03:58:27.915Z,2.43
2022-11-25T03:59:29.357Z,2.45
2022-11-25T04:00:31.286Z,2.48
2022-11-25T04:01:32.843Z,2.49
2022-11-25T04:02:34.817Z,2.50
2022-11-25T04:03:36.367Z,2.50
2022-11-25T04:04:38.157Z,2.52
2022-11-25T04:05:40.229Z,2.52
2022-11-25T04:06:41.802Z,2.52
2022-11-25T04:07:43.799Z,2.55
2022-11-25T04:08:46.146Z,2.56
2022-11-25T04:09:47.743Z,2.58
2022-11-25T04:10:50.755Z,2.57
2022-11-25T04:12:11.016Z,2.56
2022-11-25T04:13:12.677Z,2.53
2022-11-25T04:14:14.323Z,2.49
2022-11-25T04:15:17.257Z,2.46
2022-11-25T04:16:25.015Z,2.46
2022-11-25T04:17:26.557Z,2.48
2022-11-25T04:18:28.337Z,2.50
2022-11-25T04:19:29.844Z,2.53
2022-11-25T04:20:31.464Z,2.52
2022-11-25T04:21:33.227Z,2.53
2022-11-25T04:22:34.735Z,2.52
2022-11-25T04:23:36.275Z,2.51
2022-11-25T04:24:38.034Z,2.52
2022-11-25T04:25:39.968Z,2.52
2022-11-25T04:26:41.509Z,2.52
2022-11-25T04:27:42.988Z,2.49
2022-11-25T04:28:44.915Z,2.46
2022-11-25T04:29:46.397Z,2.48
2022-11-25T04:30:47.948Z,2.49
2022-11-25T04:31:49.428Z,2.50
2022-11-25T04:32:51.176Z,2.48
2022-11-25T04:33:52.924Z,2.47
2022-11-25T04:34:54.565Z,2.48
2022-11-25T04:35:56.040Z,2.49
2022-11-25T04:36:57.468Z,2.45
2022-11-25T04:37:59.201Z,2.44
2022-11-25T04:39:00.641Z,2.45
2022-11-25T04:40:02.088Z,2.47
2022-11-25T04:41:03.818Z,2.44
2022-11-25T04:42:23.648Z,2.43
2022-11-25T04:43:25.474Z,2.45
2022-11-25T04:44:26.923Z,2.43
2022-11-25T04:45:33.394Z,2.45
2022-11-25T04:46:47.441Z,2.48
2022-11-25T04:47:48.916Z,2.49
2022-11-25T04:48:50.601Z,2.52
2022-11-25T04:49:52.021Z,2.52
2022-11-25T04:50:53.472Z,2.51
2022-11-25T04:51:54.883Z,2.51
2022-11-25T04:52:56.832Z,2.47
2022-11-25T04:53:58.340Z,2.47
2022-11-25T04:54:59.950Z,2.41
2022-11-25T04:56:01.428Z,2.39
2022-11-25T04:57:02.905Z,2.41
2022-11-25T04:58:04.861Z,2.44
2022-11-25T04:59:24.722Z,2.44
2022-11-25T05:00:26.342Z,2.45
2022-11-25T05:01:27.862Z,2.45
2022-11-25T05:02:29.470Z,2.46
2022-11-25T05:03:30.957Z,2.44
2022-11-25T05:04:32.588Z,2.43
2022-11-25T05:05:34.116Z,2.44
2022-11-25T05:06:35.550Z,2.44
2022-11-25T05:07:37.211Z,2.44
2022-11-25T05:08:38.763Z,2.46
2022-11-25T05:09:40.455Z,2.44
2022-11-25T05:10:41.903Z,2.45
2022-11-25T05:11:43.406Z,2.47
2022-11-25T05:12:45.202Z,2.45
2022-11-25T05:13:46.639Z,2.44
2022-11-25T05:14:49.097Z,2.42
2022-11-25T05:15:50.548Z,2.39
2022-11-25T05:16:52.654Z,2.35
2022-11-25T05:17:54.460Z,2.38
2022-11-25T05:18:56.841Z,2.38
2022-11-25T05:19:58.930Z,2.42
2022-11-25T05:21:04.890Z,2.42
2022-11-25T05:22:10.966Z,2.43
2022-11-25T05:23:12.862Z,2.41
2022-11-25T05:24:14.283Z,2.41
2022-11-25T05:25:16.603Z,2.40
2022-11-25T05:26:18.082Z,2.38
2022-11-25T05:27:21.068Z,2.39
2022-11-25T05:28:23.101Z,2.41
2022-11-25T05:29:24.536Z,2.38
2022-11-25T05:30:26.045Z,2.39
2022-11-25T05:31:27.710Z,2.39
2022-11-25T05:32:29.193Z,2.36
2022-11-25T05:33:30.649Z,2.36
2022-11-25T05:34:32.174Z,2.34
2022-11-25T05:35:33.602Z,2.32
2022-11-25T05:36:35.385Z,2.32
2022-11-25T05:37:37.319Z,2.26
2022-11-25T05:38:38.818Z,2.25
2022-11-25T05:39:40.256Z,2.25
2022-11-25T05:40:41.655Z,2.24
2022-11-25T05:41:43.102Z,2.25
2022-11-25T05:42:44.916Z,2.25
2022-11-25T05:43:47.555Z,2.25
2022-11-25T05:44:49.138Z,2.27
2022-11-25T05:45:50.689Z,2.26
2022-11-25T05:46:52.315Z,2.24
2022-11-25T05:47:55.111Z,2.25
2022-11-25T05:48:57.276Z,2.27
2022-11-25T05:49:58.964Z,2.26
2022-11-25T05:51:01.490Z,2.26
2022-11-25T05:52:03.205Z,2.27
2022-11-25T05:53:05.401Z,2.25
2022-11-25T05:54:07.230Z,2.28
2022-11-25T05:55:08.925Z,2.26
2022-11-25T05:56:10.769Z,2.25
2022-11-25T05:57:12.342Z,2.25
2022-11-25T05:58:13.772Z,2.25
2022-11-25T05:59:15.310Z,2.25
2022-11-25T06:00:19.105Z,2.28
2022-11-25T06:01:23.844Z,2.30
2022-11-25T06:02:25.685Z,2.31
2022-11-25T06:03:30.942Z,2.30
2022-11-25T06:04:32.472Z,2.26
2022-11-25T06:05:35.156Z,2.26
2022-11-25T06:06:36.571Z,2.21
2022-11-25T06:07:38.361Z,2.23
2022-11-25T06:08:40.317Z,2.23
2022-11-25T06:09:41.813Z,2.20
2022-11-25T06:10:43.258Z,2.21
2022-11-25T06:11:44.714Z,2.20
2022-11-25T06:12:46.539Z,2.20
2022-11-25T06:13:48.583Z,2.25
2022-11-25T06:14:51.295Z,2.24
2022-11-25T06:15:52.852Z,2.23
2022-11-25T06:16:54.568Z,2.19
2022-11-25T06:17:56.352Z,2.19
2022-11-25T06:18:57.794Z,2.22
2022-11-25T06:19:59.412Z,2.25
2022-11-25T06:21:00.909Z,2.23
2022-11-25T06:22:02.342Z,2.27
2022-11-25T06:23:04.149Z,2.30
2022-11-25T06:24:05.976Z,2.33
2022-11-25T06:25:07.810Z,2.33
2022-11-25T06:26:18.354Z,2.35
2022-11-25T06:27:19.853Z,2.36
2022-11-25T06:28:21.472Z,2.35
2022-11-25T06:29:22.875Z,2.35
2022-11-25T06:30:24.461Z,2.34
2022-11-25T06:31:26.811Z,2.34
2022-11-25T06:32:28.437Z,2.35
2022-11-25T06:33:29.881Z,2.32
2022-11-25T06:34:31.310Z,2.29
2022-11-25T06:35:32.758Z,2.31
2022-11-25T06:36:34.306Z,2.33
2022-11-25T06:37:35.764Z,2.32
2022-11-25T06:38:37.210Z,2.30
2022-11-25T06:39:38.721Z,2.29
2022-11-25T06:40:40.155Z,2.28
2022-11-25T06:41:41.657Z,2.27
2022-11-25T06:42:43.562Z,2.25
2022-11-25T06:43:45.152Z,2.27
2022-11-25T06:44:46.582Z,2.28
2022-11-25T06:45:48.015Z,2.28
2022-11-25T06:46:49.507Z,2.29
2022-11-25T06:47:51.155Z,2.29
2022-11-25T06:48:53.755Z,2.29
2022-11-25T06:49:55.314Z,2.34
2022-11-25T06:51:01.479Z,2.35
2022-11-25T06:52:03.089Z,2.38
2022-11-25T06:53:04.584Z,2.41
2022-11-25T06:54:07.211Z,2.41
2022-11-25T06:55:09.100Z,2.39
2022-11-25T06:56:16.907Z,2.37
2022-11-25T06:57:19.509Z,2.37
2022-11-25T06:58:35.557Z,2.36
2022-11-25T06:59:38.585Z,2.39
2022-11-25T07:00:39.998Z,2.41
2022-11-25T07:01:41.538Z,2.43
2022-11-25T07:02:48.009Z,2.44
2022-11-25T07:03:53.272Z,2.47
2022-11-25T07:04:54.713Z,2.48
2022-11-25T07:05:59.722Z,2.48
2022-11-25T07:07:01.158Z,2.50
2022-11-25T07:08:02.623Z,2.52
2022-11-25T07:09:05.264Z,2.52
2022-11-25T07:10:07.854Z,2.52
2022-11-25T07:11:30.435Z,2.54
2022-11-25T07:12:31.923Z,2.56
2022-11-25T07:13:34.092Z,2.56
2022-11-25T07:14:35.845Z,2.60
2022-11-25T07:15:38.401Z,2.60
2022-11-25T07:16:43.812Z,2.59
2022-11-25T07:17:45.976Z,2.59
2022-11-25T07:18:47.477Z,2.59
2022-11-25T07:19:49.027Z,2.62
2022-11-25T07:20:50.463Z,2.63
2022-11-25T07:21:51.970Z,2.64
2022-11-25T07:22:53.812Z,2.66
2022-11-25T07:23:55.425Z,2.67
2022-11-25T07:24:56.870Z,2.67
2022-11-25T07:26:03.370Z,2.68
2022-11-25T07:27:06.856Z,2.70
2022-11-25T07:28:08.340Z,2.73
2022-11-25T07:31:55.430Z,2.72
2022-11-25T07:32:56.925Z,2.73
2022-11-25T07:33:58.285Z,2.76
2022-11-25T07:34:59.715Z,2.80
2022-11-25T07:36:02.915Z,2.82
2022-11-25T07:37:04.422Z,2.85
2022-11-25T07:38:05.871Z,2.88
2022-11-25T07:39:11.739Z,2.90
2022-11-25T07:40:13.400Z,2.94
2022-11-25T07:41:17.362Z,2.96
2022-11-25T07:42:18.827Z,2.97
2022-11-25T07:43:20.309Z,2.97
2022-11-25T07:44:22.054Z,2.98
2022-11-25T07:45:24.440Z,3.00
2022-11-25T07:46:34.370Z,3.01
2022-11-25T07:47:35.863Z,3.05
2022-11-25T07:48:37.643Z,3.08
2022-11-25T07:49:39.440Z,3.12
2022-11-25T07:50:40.933Z,3.13
2022-11-25T07:51:47.726Z,3.15
2022-11-25T07:52:49.193Z,3.20
2022-11-25T07:53:51.516Z,3.26
2022-11-25T07:54:53.409Z,3.29
2022-11-25T07:55:54.893Z,3.30
2022-11-25T07:56:56.804Z,3.31
2022-11-25T07:57:58.240Z,3.33
2022-11-25T07:58:59.988Z,3.36
2022-11-25T08:00:01.610Z,3.39
2022-11-25T08:01:08.034Z,3.43
2022-11-25T08:02:10.588Z,3.45
2022-11-25T08:03:12.495Z,3.47
2022-11-25T08:04:19.746Z,3.49
2022-11-25T08:05:22.089Z,3.50
2022-11-25T08:06:26.819Z,3.56
2022-11-25T08:07:32.037Z,3.56
2022-11-25T08:08:39.725Z,3.60
2022-11-25T08:09:41.239Z,3.63
2022-11-25T08:10:42.701Z,3.65
2022-11-25T08:11:44.204Z,3.66
2022-11-25T08:12:45.614Z,3.71
2022-11-25T08:13:48.279Z,3.74
2022-11-25T08:14:49.703Z,3.76
2022-11-25T08:15:51.771Z,3.77
2022-11-25T08:16:53.201Z,3.81
2022-11-25T08:17:54.621Z,3.84
2022-11-25T08:18:56.437Z,3.87
2022-11-25T08:19:57.842Z,3.87
2022-11-25T08:21:04.808Z,3.90
2022-11-25T08:22:06.624Z,3.93
2022-11-25T08:23:08.083Z,3.95
2022-11-25T08:24:18.388Z,4.00
2022-11-25T08:25:19.799Z,4.01
2022-11-25T08:26:33.932Z,3.99
2022-11-25T08:27:35.424Z,4.02
2022-11-25T08:28:38.231Z,4.07
2022-11-25T08:29:39.739Z,4.07
2022-11-25T08:30:41.195Z,4.11
2022-11-25T08:31:43.181Z,4.15
2022-11-25T08:32:44.857Z,4.14
2022-11-25T08:33:47.185Z,4.19
2022-11-25T08:34:48.660Z,4.18
2022-11-25T08:35:54.319Z,4.20
2022-11-25T08:36:55.802Z,4.22
2022-11-25T08:37:57.254Z,4.34
2022-11-25T08:39:00.893Z,4.36
2022-11-25T08:40:02.445Z,4.38
2022-11-25T08:41:08.558Z,4.41
2022-11-25T08:42:10.010Z,4.46
2022-11-25T08:43:11.564Z,4.57
2022-11-25T08:44:13.927Z,4.71
2022-11-25T08:45:15.443Z,4.88
2022-11-25T08:46:22.996Z,5.09
2022-11-25T08:47:24.724Z,5.30
2022-11-25T08:48:26.142Z,5.53
2022-11-25T08:49:32.794Z,5.83
2022-11-25T08:50:37.598Z,6.43
2022-11-25T08:51:39.548Z,7.10
2022-11-25T08:52:41.523Z,7.92
2022-11-25T08:53:44.654Z,8.74
2022-11-25T08:54:46.148Z,9.70
2022-11-25T08:55:48.369Z,10.67
2022-11-25T08:56:49.843Z,11.65
2022-11-25T08:57:51.418Z,12.38
2022-11-25T08:58:54.523Z,13.04
2022-11-25T08:59:56.009Z,13.91
2022-11-25T09:00:57.568Z,14.70
2022-11-25T09:01:59.089Z,15.23
2022-11-25T09:03:03.516Z,14.96
2022-11-25T09:04:05.888Z,15.56
2022-11-25T09:05:07.650Z,16.08
2022-11-25T09:06:10.110Z,16.59
2022-11-25T09:07:11.627Z,15.76
2022-11-25T09:08:13.217Z,15.24
2022-11-25T09:09:14.768Z,15.56
2022-11-25T09:10:17.651Z,15.33
2022-11-25T09:11:19.160Z,15.03
2022-11-25T09:12:20.672Z,14.30
2022-11-25T09:13:22.246Z,13.52
2022-11-25T09:14:23.806Z,12.98
2022-11-25T09:15:25.711Z,12.47
2022-11-25T09:16:28.467Z,11.91
2022-11-25T09:17:29.968Z,11.60
2022-11-25T09:18:32.603Z,10.89
2022-11-25T09:19:34.402Z,10.51
2022-11-25T09:20:38.691Z,10.03
2022-11-25T09:21:40.264Z,9.28
2022-11-25T09:22:41.725Z,8.74
2022-11-25T09:23:43.737Z,8.22
2022-11-25T09:24:45.429Z,8.15
2022-11-25T09:25:57.168Z,8.10
2022-11-25T09:26:58.578Z,8.08
2022-11-25T09:28:00.047Z,8.04
2022-11-25T09:29:01.615Z,7.90
2022-11-25T09:30:03.260Z,7.77
2022-11-25T09:31:09.459Z,7.72
2022-11-25T09:32:11.061Z,7.62
2022-11-25T09:33:12.501Z,7.42
2022-11-25T09:34:14.327Z,7.36
2022-11-25T09:35:16.207Z,7.19
2022-11-25T09:36:19.939Z,7.22
2022-11-25T09:37:21.412Z,7.27
2022-11-25T09:38:22.901Z,7.26
2022-11-25T09:39:29.990Z,7.36
2022-11-25T09:40:48.257Z,7.36
2022-11-25T09:42:23.606Z,7.22
2022-11-25T09:43:46.895Z,7.28
2022-11-25T09:45:15.345Z,7.31
2022-11-25T09:46:45.901Z,7.25
2022-11-25T09:48:00.848Z,7.21
2022-11-25T09:49:15.402Z,7.15
2022-11-25T09:50:51.051Z,7.01
2022-11-25T09:52:30.167Z,7.05
2022-11-25T09:54:04.097Z,7.02
2022-11-25T09:55:16.026Z,7.06
2022-11-25T09:56:39.206Z,7.13
2022-11-25T09:57:46.498Z,6.81
2022-11-25T09:58:58.040Z,6.65
2022-11-25T10:00:10.591Z,6.62
2022-11-25T10:01:21.153Z,6.49
2022-11-25T10:02:34.777Z,6.48
2022-11-25T10:03:41.292Z,6.56
2022-11-25T10:04:55.403Z,6.59
2022-11-25T10:06:08.232Z,6.78
2022-11-25T10:07:21.131Z,6.83
2022-11-25T10:08:27.167Z,6.85
2022-11-25T10:09:35.609Z,6.83
2022-11-25T10:11:02.190Z,6.89
2022-11-25T10:12:13.325Z,6.88
2022-11-25T10:13:30.302Z,6.91
2022-11-25T10:14:47.358Z,6.76
2022-11-25T10:15:50.928Z,6.70
2022-11-25T10:16:58.306Z,6.79
2022-11-25T10:18:27.459Z,6.90
2022-11-25T10:19:40.998Z,6.99
2022-11-25T10:20:42.548Z,6.89
2022-11-25T10:21:46.342Z,7.00
2022-11-25T10:22:54.974Z,7.19
2022-11-25T10:23:57.162Z,7.40
2022-11-25T10:25:02.103Z,7.48
2022-11-25T10:26:13.865Z,7.34
2022-11-25T10:27:21.409Z,7.32
2022-11-25T10:28:29.583Z,7.34
2022-11-25T10:29:32.717Z,7.38
2022-11-25T10:30:39.117Z,7.50
2022-11-25T10:31:43.015Z,7.44
2022-11-25T10:33:12.551Z,7.55
2022-11-25T10:34:45.132Z,7.54
2022-11-25T10:35:49.060Z,7.49
2022-11-25T10:36:52.843Z,7.54
2022-11-25T10:37:56.268Z,7.60
2022-11-25T10:39:07.878Z,7.72
2022-11-25T10:40:15.643Z,7.66
2022-11-25T10:41:20.898Z,7.67
2022-11-25T10:42:26.237Z,7.73
2022-11-25T10:43:31.715Z,7.76
2022-11-25T10:44:36.435Z,7.73
2022-11-25T10:45:45.629Z,7.81
2022-11-25T10:47:15.208Z,7.66
2022-11-25T10:48:44.517Z,7.74
2022-11-25T10:49:54.241Z,7.73
2022-11-25T10:51:04.562Z,7.65
2022-11-25T10:52:12.250Z,7.68
2022-11-25T10:53:22.549Z,7.72
2022-11-25T10:54:39.134Z,7.79
2022-11-25T10:55:57.413Z,7.90
2022-11-25T10:57:01.649Z,7.85
2022-11-25T10:58:30.355Z,7.92
2022-11-25T10:59:39.850Z,8.00
2022-11-25T11:00:41.324Z,8.00
2022-11-25T11:01:42.979Z,8.06
2022-11-25T11:02:48.299Z,8.10
2022-11-25T11:04:02.436Z,8.21
2022-11-25T11:05:09.629Z,8.19
2022-11-25T11:06:32.046Z,8.10
2022-11-25T11:07:36.742Z,8.12
2022-11-25T11:08:40.274Z,8.13
2022-11-25T11:09:42.103Z,8.14
2022-11-25T11:10:44.314Z,8.09
2022-11-25T11:11:49.644Z,8.10
2022-11-25T11:12:56.633Z,7.96
2022-11-25T11:14:12.388Z,7.97
2022-11-25T11:15:22.984Z,7.99
2022-11-25T11:16:41.425Z,8.02
2022-11-25T11:17:43.080Z,7.87
2022-11-25T11:18:44.609Z,7.95
2022-11-25T11:20:20.319Z,8.00
2022-11-25T11:21:41.890Z,8.03
2022-11-25T11:22:51.657Z,8.07
2022-11-25T11:23:54.996Z,8.08
2022-11-25T11:25:24.501Z,8.03
2022-11-25T11:26:34.481Z,8.00
2022-11-25T11:27:37.785Z,7.75
2022-11-25T11:28:41.252Z,7.71
2022-11-25T11:29:43.014Z,7.75
2022-11-25T11:30:57.210Z,7.84
2022-11-25T11:32:02.260Z,7.84
2022-11-25T11:33:35.663Z,7.88
2022-11-25T11:35:18.977Z,7.96
2022-11-25T11:36:55.767Z,7.90
2022-11-25T11:38:05.627Z,7.81
2022-11-25T11:39:36.212Z,7.87
2022-11-25T11:40:50.389Z,8.00
2022-11-25T11:42:39.456Z,8.03
2022-11-25T11:43:44.198Z,8.06
2022-11-25T11:45:05.090Z,8.14
2022-11-25T11:46:15.653Z,8.10
2022-11-25T11:47:30.344Z,8.07
2022-11-25T11:48:53.679Z,8.14
2022-11-25T11:50:25.182Z,8.13
2022-11-25T11:51:44.030Z,8.11
2022-11-25T11:52:48.413Z,8.10
2022-11-25T11:53:57.943Z,8.13
2022-11-25T11:55:20.384Z,8.22
2022-11-25T11:56:35.398Z,8.24
2022-11-25T11:57:47.014Z,8.18
2022-11-25T11:59:05.874Z,8.19
2022-11-25T12:00:14.737Z,8.18
2022-11-25T12:01:16.113Z,8.13
2022-11-25T12:02:20.543Z,8.27
2022-11-25T12:03:25.461Z,8.28
2022-11-25T12:04:38.288Z,8.19
2022-11-25T12:05:40.143Z,8.27
2022-11-25T12:06:45.656Z,8.25
2022-11-25T12:07:51.540Z,8.10
2022-11-25T12:09:01.522Z,8.06
2022-11-25T12:10:15.019Z,8.03
2022-11-25T12:11:20.929Z,8.04
2022-11-25T12:12:33.851Z,8.11
2022-11-25T12:14:01.356Z,8.16
2022-11-25T12:15:06.266Z,8.06
2022-11-25T12:16:24.375Z,8.10
2022-11-25T12:17:28.636Z,8.08
2022-11-25T12:18:49.020Z,8.10
2022-11-25T12:20:29.410Z,8.02
2022-11-25T12:21:46.060Z,7.98
2022-11-25T12:22:57.993Z,7.86
2022-11-25T12:24:17.671Z,7.87
2022-11-25T12:25:35.523Z,7.96
2022-11-25T12:26:46.946Z,8.01
2022-11-25T12:28:20.865Z,8.06
2022-11-25T12:29:40.087Z,8.10
2022-11-25T12:31:05.449Z,7.86
2022-11-25T12:32:56.592Z,7.82
2022-11-25T12:34:04.134Z,7.83
2022-11-25T12:35:11.631Z,7.82
2022-11-25T12:36:20.790Z,7.73
2022-11-25T12:37:40.626Z,7.78
2022-11-25T12:39:11.680Z,7.88
2022-11-25T12:40:31.852Z,8.01
2022-11-25T12:41:50.737Z,8.06
2022-11-25T12:42:56.739Z,8.11
2022-11-25T12:44:03.043Z,8.12
2022-11-25T12:45:20.349Z,8.17
2022-11-25T12:46:36.747Z,8.19
2022-11-25T12:47:38.254Z,8.19
2022-11-25T12:48:41.924Z,8.20
2022-11-25T12:49:47.287Z,8.17
2022-11-25T12:51:13.369Z,8.21
2022-11-25T12:52:33.173Z,8.14
2022-11-25T12:53:54.637Z,8.14
2022-11-25T12:55:05.783Z,8.17
2022-11-25T12:56:24.462Z,8.17
2022-11-25T12:57:53.535Z,8.20
2022-11-25T12:59:28.189Z,8.28
2022-11-25T13:01:04.129Z,8.33
2022-11-25T13:02:39.926Z,8.34
2022-11-25T13:04:28.358Z,8.37
2022-11-25T13:06:07.122Z,8.39
2022-11-25T13:07:27.345Z,8.42
2022-11-25T13:09:13.444Z,8.43
2022-11-25T13:10:36.532Z,8.41
2022-11-25T13:11:53.075Z,8.31
2022-11-25T13:13:17.697Z,8.32
2022-11-25T13:14:54.769Z,8.36
2022-11-25T13:16:00.307Z,8.36
2022-11-25T13:17:02.841Z,8.37
2022-11-25T13:18:12.081Z,8.39
2022-11-25T13:19:19.247Z,8.35
2022-11-25T13:20:29.637Z,8.34
2022-11-25T13:21:31.106Z,8.34
2022-11-25T13:22:32.581Z,8.36
2022-11-25T13:23:56.287Z,8.39
2022-11-25T13:24:58.765Z,8.38
2022-11-25T13:26:36.227Z,8.39
2022-11-25T13:27:40.160Z,8.37
2022-11-25T13:28:41.600Z,8.38
2022-11-25T13:29:43.006Z,8.39
2022-11-25T13:30:44.937Z,8.35
2022-11-25T13:32:00.013Z,8.37
2022-11-25T13:33:10.877Z,8.37
2022-11-25T13:34:21.475Z,8.36
2022-11-25T13:35:24.853Z,8.36
2022-11-25T13:36:45.584Z,8.36
2022-11-25T13:37:47.956Z,8.36
2022-11-25T13:38:49.445Z,8.35
2022-11-25T13:40:21.314Z,8.34
2022-11-25T13:41:32.386Z,8.34
2022-11-25T13:42:33.865Z,8.32
2022-11-25T13:43:35.325Z,8.30
2022-11-25T13:44:51.279Z,8.28
2022-11-25T13:45:53.348Z,8.26
2022-11-25T13:46:58.208Z,8.26
2022-11-25T13:48:21.541Z,8.26
2022-11-25T13:49:51.519Z,8.23
2022-11-25T13:51:18.856Z,8.19
2022-11-25T13:52:34.200Z,8.17
2022-11-25T13:53:36.068Z,8.15
2022-11-25T13:54:50.266Z,8.12
2022-11-25T13:55:54.948Z,8.11
2022-11-25T13:57:17.374Z,8.12
2022-11-25T13:58:23.743Z,8.12
2022-11-25T14:00:07.120Z,8.14
2022-11-25T14:01:30.016Z,8.11
2022-11-25T14:02:51.890Z,8.10
2022-11-25T14:03:56.981Z,8.07
2022-11-25T14:05:43.392Z,8.07
2022-11-25T14:07:20.117Z,8.08
2022-11-25T14:08:26.486Z,8.08
2022-11-25T14:09:56.409Z,8.06
2022-11-25T14:11:10.044Z,8.07
2022-11-25T14:12:29.893Z,8.06
2022-11-25T14:14:04.931Z,8.06
2022-11-25T14:15:33.132Z,8.05
2022-11-25T14:16:37.626Z,8.03
2022-11-25T14:18:04.460Z,8.03
2022-11-25T14:19:49.638Z,8.02
2022-11-25T14:20:50.381Z,8.01
2022-11-25T14:22:02.939Z,8.01
2022-11-25T14:23:22.067Z,8.03
2022-11-25T14:24:46.390Z,8.04
2022-11-25T14:25:54.274Z,8.03
2022-11-25T14:26:58.584Z,8.02
2022-11-25T14:28:12.355Z,8.00
2022-11-25T14:29:23.688Z,7.96
2022-11-25T14:30:25.925Z,7.99
2022-11-25T14:31:37.264Z,7.97
2022-11-25T14:32:58.452Z,7.96
2022-11-25T14:34:23.268Z,7.98
2022-11-25T14:35:35.487Z,7.91
2022-11-25T14:37:06.593Z,7.94
2022-11-25T14:38:44.591Z,7.94
2022-11-25T14:39:54.281Z,7.94
2022-11-25T14:41:17.794Z,7.96
2022-11-25T14:42:22.535Z,7.95
2022-11-25T14:43:25.280Z,7.97
2022-11-25T14:44:39.480Z,7.95
2022-11-25T14:45:41.005Z,7.95
2022-11-25T14:46:57.548Z,7.95
2022-11-25T14:48:12.789Z,7.94
2022-11-25T14:49:59.670Z,7.94
2022-11-25T14:50:36.304Z,7.93
2022-11-25T14:51:38.740Z,7.95